createdAt,value
2017-11-18T00:01:33.836Z,20.02
2017-11-18T00:04:01.427Z,19.08
2017-11-18T00:06:28.971Z,20.17
2017-11-18T00:08:56.558Z,20.50
2017-11-18T00:11:24.111Z,18.55
2017-11-18T00:13:51.694Z,17.65
2017-11-18T00:16:19.242Z,18.00
2017-11-18T00:18:46.822Z,18.95
2017-11-18T00:21:14.366Z,19.23
2017-11-18T00:23:41.958Z,19.77
2017-11-18T00:26:10.265Z,16.52
2017-11-18T00:28:37.849Z,16.30
2017-11-18T00:31:05.392Z,17.75
2017-11-18T00:33:32.970Z,20.48
2017-11-18T00:36:00.512Z,18.98
2017-11-18T00:38:28.086Z,18.65
2017-11-18T00:40:55.631Z,19.30
2017-11-18T00:43:23.213Z,19.50
2017-11-18T00:45:50.753Z,19.85
2017-11-18T00:48:18.341Z,20.12
2017-11-18T00:50:45.927Z,20.20
2017-11-18T00:53:13.494Z,20.12
2017-11-18T00:55:41.801Z,18.02
2017-11-18T00:58:09.381Z,19.77
2017-11-18T01:00:36.933Z,19.05
2017-11-18T01:03:04.513Z,17.08
2017-11-18T01:05:32.151Z,18.30
2017-11-18T01:07:59.730Z,18.75
2017-11-18T01:10:27.270Z,19.02
2017-11-18T01:12:54.850Z,19.37
2017-11-18T01:15:22.391Z,19.75
2017-11-18T01:17:49.967Z,19.27
2017-11-18T01:20:17.514Z,19.45
2017-11-18T01:22:45.094Z,18.92
2017-11-18T01:25:12.642Z,17.70
2017-11-18T01:27:40.227Z,18.20
2017-11-18T01:30:07.764Z,18.75
2017-11-18T01:32:35.314Z,19.37
2017-11-18T01:35:02.891Z,17.95
2017-11-18T01:37:30.433Z,19.70
2017-11-18T01:39:58.015Z,21.10
2017-11-18T01:42:25.591Z,18.98
2017-11-18T01:44:53.134Z,19.95
2017-11-18T01:47:20.718Z,19.62
2017-11-18T01:49:49.030Z,18.90
2017-11-18T01:52:16.620Z,20.55
2017-11-18T01:54:44.159Z,20.15
2017-11-18T01:57:11.735Z,20.00
2017-11-18T01:59:39.278Z,19.75
2017-11-18T02:02:06.857Z,20.60
2017-11-18T02:04:34.411Z,18.75
2017-11-18T02:07:01.989Z,19.83
2017-11-18T02:09:29.525Z,21.15
2017-11-18T02:11:57.102Z,20.35
2017-11-18T02:14:24.652Z,20.58
2017-11-18T02:16:52.229Z,21.65
2017-11-18T02:19:19.778Z,18.90
2017-11-18T02:21:47.356Z,21.40
2017-11-18T02:24:14.893Z,20.27
2017-11-18T02:26:42.470Z,20.25
2017-11-18T02:29:10.014Z,21.17
2017-11-18T02:31:37.556Z,19.87
2017-11-18T02:34:05.138Z,20.48
2017-11-18T02:36:32.679Z,19.75
2017-11-18T02:39:00.256Z,19.75
2017-11-18T02:41:27.933Z,20.58
2017-11-18T02:43:55.520Z,20.37
2017-11-18T02:46:23.860Z,20.67
2017-11-18T02:48:51.452Z,19.77
2017-11-18T02:51:19.763Z,18.80
2017-11-18T02:53:47.340Z,20.50
2017-11-18T02:56:14.880Z,19.50
2017-11-18T02:58:42.458Z,19.92
2017-11-18T03:01:10.050Z,21.12
2017-11-18T03:03:37.592Z,21.90
2017-11-18T03:06:05.174Z,20.12
2017-11-18T03:08:32.715Z,20.90
2017-11-18T03:11:00.297Z,19.52
2017-11-18T03:13:27.845Z,19.80
2017-11-18T03:15:55.424Z,20.65
2017-11-18T03:18:22.964Z,19.37
2017-11-18T03:20:50.545Z,20.42
2017-11-18T03:23:18.858Z,20.60
2017-11-18T03:25:46.468Z,19.42
2017-11-18T03:28:14.005Z,21.37
2017-11-18T03:30:41.593Z,20.52
2017-11-18T03:33:09.129Z,21.48
2017-11-18T03:35:36.705Z,19.37
2017-11-18T03:38:04.245Z,21.98
2017-11-18T03:40:31.824Z,20.58
2017-11-18T03:42:59.364Z,20.85
2017-11-18T03:45:26.941Z,21.05
2017-11-18T03:47:55.254Z,20.75
2017-11-18T03:50:23.593Z,22.50
2017-11-18T03:52:51.229Z,23.85
2017-11-18T03:55:18.820Z,23.90
2017-11-18T03:57:46.358Z,23.90
2017-11-18T04:00:14.881Z,27.92
2017-11-18T04:02:43.191Z,26.48
2017-11-18T04:05:10.869Z,25.77
2017-11-18T04:07:38.404Z,27.98
2017-11-18T04:10:05.983Z,32.47
2017-11-18T04:12:33.522Z,26.30
2017-11-18T04:15:01.102Z,24.67
2017-11-18T04:17:28.643Z,26.52
2017-11-18T04:19:56.223Z,24.40
2017-11-18T04:22:23.761Z,26.52
2017-11-18T04:24:51.342Z,23.65
2017-11-18T04:27:18.887Z,25.27
2017-11-18T04:29:46.472Z,25.95
2017-11-18T04:32:14.011Z,27.17
2017-11-18T04:34:41.554Z,26.45
2017-11-18T04:37:09.156Z,24.40
2017-11-18T04:39:36.700Z,24.50
2017-11-18T04:42:04.287Z,27.98
2017-11-18T04:44:31.839Z,25.70
2017-11-18T04:46:59.427Z,24.90
2017-11-18T04:49:26.971Z,26.67
2017-11-18T04:51:54.549Z,24.25
2017-11-18T04:54:22.093Z,24.87
2017-11-18T04:56:49.673Z,22.33
2017-11-18T04:59:17.218Z,25.40
2017-11-18T05:01:44.799Z,24.27
2017-11-18T05:04:13.105Z,25.25
2017-11-18T05:06:40.688Z,23.65
2017-11-18T05:09:08.224Z,23.95
2017-11-18T05:11:35.803Z,25.83
2017-11-18T05:14:03.342Z,23.50
2017-11-18T05:16:30.923Z,24.73
2017-11-18T05:18:58.468Z,24.60
2017-11-18T05:21:26.048Z,22.95
2017-11-18T05:23:53.591Z,25.65
2017-11-18T05:26:21.176Z,24.52
2017-11-18T05:28:48.757Z,25.40
2017-11-18T05:31:16.363Z,26.20
2017-11-18T05:33:43.910Z,25.05
2017-11-18T05:36:11.485Z,24.00
2017-11-18T05:38:39.028Z,25.08
2017-11-18T05:41:06.605Z,26.33
2017-11-18T05:43:34.149Z,25.30
2017-11-18T05:46:01.787Z,27.62
2017-11-18T05:48:29.342Z,26.77
2017-11-18T05:50:56.934Z,26.55
2017-11-18T05:53:24.559Z,23.20
2017-11-18T05:55:52.157Z,25.17
2017-11-18T05:58:19.701Z,25.58
2017-11-18T06:00:48.045Z,27.35
2017-11-18T06:03:15.588Z,25.80
2017-11-18T06:05:43.170Z,26.60
2017-11-18T06:08:10.709Z,25.35
2017-11-18T06:10:38.300Z,27.83
2017-11-18T06:13:05.845Z,27.40
2017-11-18T06:15:33.434Z,28.95
2017-11-18T06:18:01.738Z,27.58
2017-11-18T06:20:29.320Z,27.23
2017-11-18T06:22:56.857Z,28.80
2017-11-18T06:25:24.439Z,28.85
2017-11-18T06:27:51.984Z,29.83
2017-11-18T06:30:19.565Z,29.77
2017-11-18T06:32:47.109Z,29.83
2017-11-18T06:35:14.700Z,32.38
2017-11-18T06:37:42.245Z,31.58
2017-11-18T06:40:09.816Z,30.35
2017-11-18T06:42:37.356Z,28.60
2017-11-18T06:45:04.932Z,31.50
2017-11-18T06:47:32.479Z,30.80
2017-11-18T06:50:00.056Z,30.75
2017-11-18T06:52:27.595Z,31.42
2017-11-18T06:54:55.165Z,32.42
2017-11-18T06:57:22.697Z,29.55
2017-11-18T06:59:50.273Z,30.88
2017-11-18T07:02:17.814Z,29.08
2017-11-18T07:04:45.399Z,27.92
2017-11-18T07:07:12.938Z,28.77
2017-11-18T07:09:40.517Z,29.02
2017-11-18T07:12:08.062Z,31.55
2017-11-18T07:14:35.652Z,31.95
2017-11-18T07:17:03.191Z,30.70
2017-11-18T07:19:30.771Z,31.23
2017-11-18T07:21:58.321Z,29.80
2017-11-18T07:24:26.173Z,32.67
2017-11-18T07:26:53.710Z,31.30
2017-11-18T07:29:21.301Z,33.28
2017-11-18T07:31:48.854Z,31.87
2017-11-18T07:34:16.430Z,30.12
2017-11-18T07:36:43.969Z,29.92
2017-11-18T07:39:11.550Z,29.95
2017-11-18T07:41:39.094Z,30.17
2017-11-18T07:44:06.685Z,28.77
2017-11-18T07:46:35.010Z,28.85
2017-11-18T07:49:02.591Z,31.67
2017-11-18T07:51:30.130Z,28.52
2017-11-18T07:53:57.715Z,31.02
2017-11-18T07:56:25.255Z,30.05
2017-11-18T07:58:52.841Z,30.88
2017-11-18T08:01:20.382Z,27.50
2017-11-18T08:03:47.930Z,29.35
2017-11-18T08:06:15.510Z,26.55
2017-11-18T08:08:43.060Z,27.48
2017-11-18T08:11:10.643Z,26.58
2017-11-18T08:13:38.188Z,27.85
2017-11-18T08:16:05.763Z,25.62
2017-11-18T08:18:33.314Z,25.37
2017-11-18T08:21:00.895Z,24.90
2017-11-18T08:23:28.482Z,23.65
2017-11-18T08:25:56.793Z,23.40
2017-11-18T08:28:24.371Z,20.30
2017-11-18T08:30:51.933Z,19.52
2017-11-18T08:33:19.517Z,19.95
2017-11-18T08:35:47.056Z,18.58
2017-11-18T08:38:14.634Z,18.65
2017-11-18T08:40:42.175Z,18.60
2017-11-18T08:43:09.755Z,17.55
2017-11-18T08:45:37.302Z,18.00
2017-11-18T08:48:04.944Z,17.30
2017-11-18T08:50:32.499Z,18.40
2017-11-18T08:53:00.094Z,16.62
2017-11-18T08:55:27.631Z,16.77
2017-11-18T08:57:55.210Z,15.93
2017-11-18T09:00:22.751Z,18.35
2017-11-18T09:02:50.324Z,16.50
2017-11-18T09:05:17.907Z,16.95
2017-11-18T09:07:45.449Z,16.48
2017-11-18T09:10:13.030Z,15.57
2017-11-18T09:12:41.402Z,17.75
2017-11-18T09:15:08.947Z,17.35
2017-11-18T09:17:36.491Z,15.13
2017-11-18T09:20:04.070Z,14.25
2017-11-18T09:22:31.625Z,13.02
2017-11-18T09:24:59.245Z,15.13
2017-11-18T09:27:26.789Z,15.50
2017-11-18T09:29:54.366Z,14.32
2017-11-18T09:32:21.910Z,14.77
2017-11-18T09:34:49.490Z,14.20
2017-11-18T09:37:17.035Z,12.45
2017-11-18T09:39:44.615Z,12.88
2017-11-18T09:42:12.281Z,13.35
2017-11-18T09:44:39.862Z,12.45
2017-11-18T09:47:07.421Z,13.62
2017-11-18T09:49:35.783Z,13.43
2017-11-18T09:52:03.370Z,13.32
2017-11-18T09:54:30.956Z,12.65
2017-11-18T09:56:59.270Z,13.35
2017-11-18T09:59:26.854Z,12.90
2017-11-18T10:01:54.498Z,12.95
2017-11-18T10:04:22.072Z,12.65
2017-11-18T10:06:49.608Z,13.13
2017-11-18T10:09:17.187Z,13.23
2017-11-18T10:11:44.735Z,13.77
2017-11-18T10:14:12.315Z,12.65
2017-11-18T10:16:39.858Z,11.57
2017-11-18T10:19:07.429Z,15.30
2017-11-18T10:21:34.981Z,14.07
2017-11-18T10:24:02.557Z,12.10
2017-11-18T10:26:30.094Z,12.73
2017-11-18T10:28:57.662Z,14.63
2017-11-18T10:31:25.197Z,11.73
2017-11-18T10:33:52.778Z,9.00
2017-11-18T10:36:20.315Z,13.05
2017-11-18T10:38:47.901Z,13.73
2017-11-18T10:41:15.447Z,12.00
2017-11-18T10:43:43.029Z,11.30
2017-11-18T10:46:10.567Z,11.00
2017-11-18T10:48:38.145Z,10.93
2017-11-18T10:51:05.686Z,12.80
2017-11-18T10:53:33.269Z,11.90
2017-11-18T10:56:00.806Z,11.50
2017-11-18T10:58:28.385Z,9.48
2017-11-18T11:00:55.932Z,9.88
2017-11-18T11:03:23.516Z,11.02
2017-11-18T11:05:51.053Z,7.80
2017-11-18T11:08:18.631Z,8.20
2017-11-18T11:10:46.181Z,8.40
2017-11-18T11:13:13.764Z,8.55
2017-11-18T11:15:41.302Z,7.75
2017-11-18T11:18:08.881Z,7.28
2017-11-18T11:20:36.421Z,8.55
2017-11-18T11:23:04.001Z,8.35
2017-11-18T11:25:31.541Z,8.35
2017-11-18T11:27:59.189Z,9.23
2017-11-18T11:30:26.731Z,7.18
2017-11-18T11:32:54.270Z,8.00
2017-11-18T11:35:22.613Z,7.72
2017-11-18T11:37:50.156Z,8.13
2017-11-18T11:40:17.807Z,8.77
2017-11-18T11:42:45.354Z,7.35
2017-11-18T11:45:12.933Z,8.07
2017-11-18T11:47:40.465Z,7.10
2017-11-18T11:50:08.037Z,8.00
2017-11-18T11:52:35.578Z,7.57
2017-11-18T11:55:03.172Z,8.80
2017-11-18T11:57:30.706Z,6.90
2017-11-18T11:59:58.286Z,5.97
2017-11-18T12:02:25.828Z,6.93
2017-11-18T12:04:53.404Z,8.10
2017-11-18T12:07:20.951Z,6.45
2017-11-18T12:09:48.532Z,8.07
2017-11-18T12:12:16.184Z,12.88
2017-11-18T12:14:43.775Z,8.93
2017-11-18T12:17:11.317Z,7.12
2017-11-18T12:19:38.890Z,8.43
2017-11-18T12:22:06.442Z,9.38
2017-11-18T12:24:34.025Z,9.80
2017-11-18T12:27:01.569Z,8.55
2017-11-18T12:29:29.152Z,8.43
2017-11-18T12:31:57.460Z,7.40
2017-11-18T12:34:25.045Z,7.15
2017-11-18T12:36:52.595Z,8.75
2017-11-18T12:39:20.180Z,7.68
2017-11-18T12:41:47.719Z,8.18
2017-11-18T12:44:15.293Z,8.70
2017-11-18T12:46:42.839Z,7.15
2017-11-18T12:49:10.417Z,7.82
2017-11-18T12:51:37.965Z,8.93
2017-11-18T12:54:05.547Z,6.90
2017-11-18T12:56:33.114Z,9.23
2017-11-18T12:59:00.702Z,9.13
2017-11-18T13:01:29.004Z,6.90
2017-11-18T13:03:56.584Z,8.55
2017-11-18T13:06:24.121Z,6.25
2017-11-18T13:08:51.707Z,9.10
2017-11-18T13:11:19.249Z,8.98
2017-11-18T13:13:46.831Z,9.35
2017-11-18T13:16:14.360Z,9.40
2017-11-18T13:18:41.942Z,9.15
2017-11-18T13:21:09.479Z,8.27
2017-11-18T13:23:37.063Z,7.62
2017-11-18T13:26:05.498Z,8.93
2017-11-18T13:28:33.842Z,9.60
2017-11-18T13:31:01.394Z,8.40
2017-11-18T13:33:28.965Z,9.35
2017-11-18T13:35:56.506Z,8.77
2017-11-18T13:38:24.263Z,10.05
2017-11-18T13:40:51.817Z,8.70
2017-11-18T13:43:19.394Z,8.95
2017-11-18T13:45:46.969Z,9.27
2017-11-18T13:48:15.324Z,8.90
2017-11-18T13:50:42.868Z,9.50
2017-11-18T13:53:10.453Z,9.80
2017-11-18T13:55:38.019Z,8.48
2017-11-18T13:58:05.607Z,8.98
2017-11-18T14:00:34.105Z,9.85
2017-11-18T14:03:01.651Z,10.05
2017-11-18T14:05:29.993Z,9.27
2017-11-18T14:07:57.547Z,9.45
2017-11-18T14:10:25.129Z,8.90
2017-11-18T14:12:52.719Z,10.20
2017-11-18T14:15:20.298Z,9.23
2017-11-18T14:17:47.846Z,10.50
2017-11-18T14:20:15.637Z,10.15
2017-11-18T14:22:43.177Z,9.70
2017-11-18T14:25:10.757Z,10.00
2017-11-18T14:27:38.299Z,9.82
2017-11-18T14:30:05.882Z,9.65
2017-11-18T14:32:33.427Z,10.20
2017-11-18T14:35:01.003Z,10.00
2017-11-18T14:37:28.545Z,10.70
2017-11-18T14:39:56.192Z,10.73
2017-11-18T14:42:23.733Z,10.30
2017-11-18T14:44:52.079Z,10.50
2017-11-18T14:47:19.626Z,11.05
2017-11-18T14:49:47.214Z,10.90
2017-11-18T14:52:16.278Z,9.40
2017-11-18T14:54:43.858Z,11.57
2017-11-18T14:57:11.403Z,9.68
2017-11-18T14:59:38.989Z,11.40
2017-11-18T15:02:06.532Z,10.40
2017-11-18T15:04:34.113Z,9.18
2017-11-18T15:07:02.437Z,11.35
2017-11-18T15:09:30.013Z,10.18
2017-11-18T15:11:57.559Z,10.80
2017-11-18T15:14:42.953Z,7.75
2017-11-18T15:17:16.227Z,10.00
2017-11-18T15:19:49.564Z,10.40
2017-11-18T15:22:17.106Z,10.32
2017-11-18T15:24:50.299Z,10.25
2017-11-18T15:27:23.323Z,9.05
2017-11-18T15:30:07.442Z,10.35
2017-11-18T15:32:49.865Z,9.10
2017-11-18T15:35:20.426Z,10.23
2017-11-18T15:37:53.770Z,8.52
2017-11-18T15:40:21.346Z,8.38
2017-11-18T15:42:51.587Z,7.78
2017-11-18T15:45:33.756Z,9.73
2017-11-18T15:48:18.969Z,8.10
2017-11-18T15:51:06.098Z,8.77
2017-11-18T15:53:40.048Z,8.77
2017-11-18T15:56:27.270Z,7.12
2017-11-18T15:58:59.795Z,7.90
2017-11-18T16:01:33.657Z,9.80
2017-11-18T16:04:01.254Z,8.82
2017-11-18T16:06:35.171Z,8.05
2017-11-18T16:09:03.531Z,8.73
2017-11-18T16:11:31.126Z,8.32
2017-11-18T16:13:58.725Z,8.73
2017-11-18T16:16:26.270Z,7.43
2017-11-18T16:18:53.848Z,8.25
2017-11-18T16:21:21.391Z,7.32
2017-11-18T16:23:48.980Z,8.57
2017-11-18T16:26:16.530Z,8.43
2017-11-18T16:28:44.110Z,7.80
2017-11-18T16:31:11.658Z,7.60
2017-11-18T16:33:39.251Z,9.25
2017-11-18T16:36:07.561Z,8.90
2017-11-18T16:38:35.150Z,10.68
2017-11-18T16:41:02.688Z,9.18
2017-11-18T16:43:30.273Z,8.38
2017-11-18T16:45:57.810Z,8.85
2017-11-18T16:48:25.387Z,8.70
2017-11-18T16:51:00.091Z,7.95
2017-11-18T16:53:27.691Z,7.57
2017-11-18T16:55:55.236Z,9.05
2017-11-18T16:58:22.814Z,9.45
2017-11-18T17:00:50.382Z,8.90
2017-11-18T17:03:18.733Z,9.48
2017-11-18T17:05:46.274Z,10.95
2017-11-18T17:08:13.865Z,9.95
2017-11-18T17:10:41.451Z,9.27
2017-11-18T17:13:09.823Z,11.20
2017-11-18T17:15:38.139Z,9.77
2017-11-18T17:18:05.693Z,8.93
2017-11-18T17:20:33.267Z,9.60
2017-11-18T17:23:00.853Z,5.70
2017-11-18T17:25:28.389Z,8.18
2017-11-18T17:27:55.969Z,7.60
2017-11-18T17:30:23.505Z,6.37
2017-11-18T17:32:51.051Z,4.95
2017-11-18T17:35:18.636Z,6.20
2017-11-18T17:37:46.209Z,6.65
2017-11-18T17:40:13.747Z,6.53
2017-11-18T17:42:41.326Z,6.40
2017-11-18T17:45:08.875Z,6.70
2017-11-18T17:47:36.454Z,6.22
2017-11-18T17:50:03.998Z,5.60
2017-11-18T17:52:31.570Z,6.45
2017-11-18T17:54:59.109Z,5.93
2017-11-18T17:57:26.685Z,5.75
2017-11-18T17:59:54.234Z,6.20
2017-11-18T18:02:21.801Z,5.35
2017-11-18T18:04:49.342Z,6.90
2017-11-18T18:07:16.916Z,7.20
2017-11-18T18:09:44.448Z,7.22
2017-11-18T18:12:12.026Z,6.82
2017-11-18T18:14:39.568Z,6.90
2017-11-18T18:17:07.166Z,6.03
2017-11-18T18:19:34.704Z,6.32
2017-11-18T18:22:02.246Z,6.68
2017-11-18T18:24:29.925Z,6.75
2017-11-18T18:26:57.481Z,7.25
2017-11-18T18:29:25.059Z,7.15
2017-11-18T18:31:52.606Z,7.15
2017-11-18T18:34:20.182Z,6.18
2017-11-18T18:36:47.778Z,6.95
2017-11-18T18:39:16.085Z,6.93
2017-11-18T18:41:43.660Z,6.50
2017-11-18T18:44:11.261Z,6.40
2017-11-18T18:46:38.800Z,6.20
2017-11-18T18:49:06.386Z,5.32
2017-11-18T18:51:34.702Z,6.80
2017-11-18T18:54:02.275Z,5.87
2017-11-18T18:56:29.812Z,6.18
2017-11-18T18:58:57.420Z,6.50
2017-11-18T19:01:24.947Z,5.22
2017-11-18T19:03:52.517Z,6.15
2017-11-18T19:06:20.058Z,5.90
2017-11-18T19:08:47.641Z,6.65
2017-11-18T19:11:15.204Z,5.50
2017-11-18T19:13:42.774Z,6.30
2017-11-18T19:16:10.314Z,6.80
2017-11-18T19:18:37.891Z,6.60
2017-11-18T19:21:05.438Z,7.35
2017-11-18T19:23:46.033Z,6.57
2017-11-18T19:26:13.575Z,6.57
2017-11-18T19:28:41.155Z,6.03
2017-11-18T19:31:08.694Z,6.65
2017-11-18T19:33:36.284Z,6.90
2017-11-18T19:36:04.594Z,6.40
2017-11-18T19:38:32.170Z,5.75
2017-11-18T19:40:59.703Z,7.45
2017-11-18T19:43:33.646Z,7.10
2017-11-18T19:46:02.415Z,6.90
2017-11-18T19:48:30.504Z,6.70
2017-11-18T19:50:58.060Z,6.75
2017-11-18T19:53:25.643Z,6.50
2017-11-18T19:55:53.953Z,6.68
2017-11-18T19:58:23.119Z,6.40
2017-11-18T20:00:50.759Z,6.62
2017-11-18T20:03:34.632Z,5.05
2017-11-18T20:06:02.169Z,6.70
2017-11-18T20:08:32.486Z,6.62
2017-11-18T20:11:00.035Z,6.93
2017-11-18T20:13:36.298Z,7.43
2017-11-18T20:16:03.837Z,6.00
2017-11-18T20:18:32.178Z,5.78
2017-11-18T20:20:59.719Z,6.15
2017-11-18T20:23:27.300Z,7.80
2017-11-18T20:25:54.833Z,3.78
2017-11-18T20:28:29.445Z,6.45
2017-11-18T20:30:59.455Z,6.68
2017-11-18T20:33:27.169Z,7.65
2017-11-18T20:35:56.003Z,7.70
2017-11-18T20:38:23.591Z,6.22
2017-11-18T20:40:51.126Z,7.57
2017-11-18T20:43:18.802Z,8.57
2017-11-18T20:45:46.345Z,8.77
2017-11-18T20:48:13.925Z,10.23
2017-11-18T20:50:41.468Z,9.82
2017-11-18T20:53:09.061Z,10.32
2017-11-18T20:55:36.657Z,10.73
2017-11-18T20:58:04.997Z,10.90
2017-11-18T21:00:32.537Z,13.05
2017-11-18T21:03:00.145Z,11.75
2017-11-18T21:05:27.693Z,11.57
2017-11-18T21:07:56.786Z,12.50
2017-11-18T21:10:24.350Z,12.93
2017-11-18T21:12:51.937Z,11.32
2017-11-18T21:15:20.254Z,12.30
2017-11-18T21:17:47.833Z,10.18
2017-11-18T21:20:15.379Z,10.18
2017-11-18T21:22:42.970Z,12.30
2017-11-18T21:25:13.238Z,10.88
2017-11-18T21:27:56.997Z,10.85
2017-11-18T21:30:25.233Z,9.13
2017-11-18T21:32:52.821Z,10.52
2017-11-18T21:35:24.090Z,11.50
2017-11-18T21:37:51.692Z,13.05
2017-11-18T21:40:20.000Z,12.07
2017-11-18T21:42:47.583Z,10.50
2017-11-18T21:45:15.238Z,10.85
2017-11-18T21:47:42.831Z,10.38
2017-11-18T21:50:10.563Z,11.30
2017-11-18T21:52:39.160Z,11.80
2017-11-18T21:55:06.710Z,11.45
2017-11-18T21:57:34.295Z,10.75
2017-11-18T22:00:01.850Z,9.10
2017-11-18T22:02:29.426Z,9.75
2017-11-18T22:04:58.696Z,9.80
2017-11-18T22:07:26.265Z,9.13
2017-11-18T22:09:57.137Z,6.05
2017-11-18T22:12:25.483Z,9.27
2017-11-18T22:14:55.017Z,9.75
2017-11-18T22:17:22.592Z,9.82
2017-11-18T22:19:50.905Z,10.00
2017-11-18T22:22:18.493Z,9.18
2017-11-18T22:24:46.027Z,9.45
2017-11-18T22:27:13.576Z,8.52
2017-11-18T22:29:41.170Z,8.50
2017-11-18T22:32:08.708Z,8.75
2017-11-18T22:34:36.284Z,9.07
2017-11-18T22:37:03.854Z,8.60
2017-11-18T22:39:31.432Z,8.35
2017-11-18T22:42:00.771Z,7.90
2017-11-18T22:44:28.350Z,5.05
2017-11-18T22:46:55.881Z,5.47
2017-11-18T22:49:23.465Z,6.85
2017-11-18T22:51:51.238Z,8.23
2017-11-18T22:54:19.730Z,8.27
2017-11-18T22:56:47.270Z,7.20
2017-11-18T22:59:14.853Z,7.05
2017-11-18T23:01:42.401Z,7.18
2017-11-18T23:04:13.071Z,7.32
2017-11-18T23:06:41.379Z,7.60
2017-11-18T23:09:08.956Z,5.90
2017-11-18T23:11:36.495Z,7.68
2017-11-18T23:14:05.671Z,6.85
2017-11-18T23:16:33.984Z,6.97
2017-11-18T23:19:01.566Z,7.72
2017-11-18T23:21:29.105Z,7.22
2017-11-18T23:23:56.685Z,6.35
2017-11-18T23:26:26.210Z,6.87
2017-11-18T23:28:53.793Z,7.20
2017-11-18T23:31:22.093Z,6.90
2017-11-18T23:33:49.672Z,7.20
2017-11-18T23:36:17.213Z,7.15
2017-11-18T23:38:45.087Z,7.07
2017-11-18T23:41:12.625Z,6.97
2017-11-18T23:43:40.203Z,7.53
2017-11-18T23:46:07.754Z,7.68
2017-11-18T23:48:35.329Z,7.65
2017-11-18T23:51:02.870Z,6.45
2017-11-18T23:53:30.436Z,6.30
2017-11-18T23:55:57.967Z,5.95
2017-11-18T23:58:26.313Z,7.03
